sensor_id;sensor_type;location;lat;lon;timestamp;P1;durP1;ratioP1;P2;durP2;ratioP2
69185;SDS011;56298;49.246;9.410;2023-02-28T00:00:09;15.50;;;14.30;;
69185;SDS011;56298;49.246;9.410;2023-02-28T00:02:36;15.25;;;13.95;;
69185;SDS011;56298;49.246;9.410;2023-02-28T00:05:02;14.93;;;13.68;;
69185;SDS011;56298;49.246;9.410;2023-02-28T00:07:29;14.57;;;13.43;;
69185;SDS011;56298;49.246;9.410;2023-02-28T00:09:55;14.10;;;12.98;;
69185;SDS011;56298;49.246;9.410;2023-02-28T00:12:20;13.65;;;12.45;;
69185;SDS011;56298;49.246;9.410;2023-02-28T00:14:46;14.47;;;13.27;;
69185;SDS011;56298;49.246;9.410;2023-02-28T00:17:11;14.27;;;13.07;;
69185;SDS011;56298;49.246;9.410;2023-02-28T00:19:36;15.67;;;14.37;;
69185;SDS011;56298;49.246;9.410;2023-02-28T00:22:01;14.67;;;13.37;;
69185;SDS011;56298;49.246;9.410;2023-02-28T00:24:27;14.68;;;13.48;;
69185;SDS011;56298;49.246;9.410;2023-02-28T00:26:52;16.17;;;14.67;;
69185;SDS011;56298;49.246;9.410;2023-02-28T00:29:17;13.17;;;11.97;;
69185;SDS011;56298;49.246;9.410;2023-02-28T00:31:42;14.60;;;13.40;;
69185;SDS011;56298;49.246;9.410;2023-02-28T00:34:08;15.60;;;14.40;;
69185;SDS011;56298;49.246;9.410;2023-02-28T00:36:33;14.47;;;13.17;;
69185;SDS011;56298;49.246;9.410;2023-02-28T00:38:58;16.27;;;14.87;;
69185;SDS011;56298;49.246;9.410;2023-02-28T00:41:23;14.93;;;13.60;;
69185;SDS011;56298;49.246;9.410;2023-02-28T00:43:49;16.43;;;15.13;;
69185;SDS011;56298;49.246;9.410;2023-02-28T00:46:14;14.70;;;13.40;;
69185;SDS011;56298;49.246;9.410;2023-02-28T00:48:39;15.17;;;13.87;;
69185;SDS011;56298;49.246;9.410;2023-02-28T00:51:04;14.37;;;13.10;;
69185;SDS011;56298;49.246;9.410;2023-02-28T00:53:30;15.55;;;14.25;;
69185;SDS011;56298;49.246;9.410;2023-02-28T00:55:57;15.98;;;14.77;;
69185;SDS011;56298;49.246;9.410;2023-02-28T00:58:23;15.50;;;14.10;;
69185;SDS011;56298;49.246;9.410;2023-02-28T01:00:48;14.23;;;13.03;;
69185;SDS011;56298;49.246;9.410;2023-02-28T01:03:17;14.67;;;13.43;;
69185;SDS011;56298;49.246;9.410;2023-02-28T01:05:43;15.20;;;13.93;;
69185;SDS011;56298;49.246;9.410;2023-02-28T01:08:09;15.07;;;13.67;;
69185;SDS011;56298;49.246;9.410;2023-02-28T01:10:34;15.70;;;14.40;;
69185;SDS011;56298;49.246;9.410;2023-02-28T01:13:01;14.57;;;13.38;;
69185;SDS011;56298;49.246;9.410;2023-02-28T01:15:33;16.20;;;14.75;;
69185;SDS011;56298;49.246;9.410;2023-02-28T01:17:59;15.98;;;14.57;;
69185;SDS011;56298;49.246;9.410;2023-02-28T01:20:24;16.23;;;14.93;;
69185;SDS011;56298;49.246;9.410;2023-02-28T01:22:49;14.80;;;13.50;;
69185;SDS011;56298;49.246;9.410;2023-02-28T01:25:15;15.53;;;14.33;;
69185;SDS011;56298;49.246;9.410;2023-02-28T01:27:40;16.57;;;15.07;;
69185;SDS011;56298;49.246;9.410;2023-02-28T01:30:06;16.57;;;15.27;;
69185;SDS011;56298;49.246;9.410;2023-02-28T01:32:32;16.67;;;15.27;;
69185;SDS011;56298;49.246;9.410;2023-02-28T01:34:58;16.30;;;15.00;;
69185;SDS011;56298;49.246;9.410;2023-02-28T01:37:23;16.20;;;14.90;;
69185;SDS011;56298;49.246;9.410;2023-02-28T01:39:48;16.67;;;15.17;;
69185;SDS011;56298;49.246;9.410;2023-02-28T01:42:13;15.93;;;14.43;;
69185;SDS011;56298;49.246;9.410;2023-02-28T01:47:22;15.75;;;14.45;;
69185;SDS011;56298;49.246;9.410;2023-02-28T01:49:48;16.08;;;14.68;;
69185;SDS011;56298;49.246;9.410;2023-02-28T01:52:16;16.10;;;14.57;;
69185;SDS011;56298;49.246;9.410;2023-02-28T01:54:43;16.38;;;14.95;;
69185;SDS011;56298;49.246;9.410;2023-02-28T01:57:13;16.27;;;14.88;;
69185;SDS011;56298;49.246;9.410;2023-02-28T01:59:42;15.60;;;14.30;;
69185;SDS011;56298;49.246;9.410;2023-02-28T02:02:11;16.45;;;14.95;;
69185;SDS011;56298;49.246;9.410;2023-02-28T02:04:38;16.38;;;14.90;;
69185;SDS011;56298;49.246;9.410;2023-02-28T02:07:12;17.05;;;15.60;;
69185;SDS011;56298;49.246;9.410;2023-02-28T02:09:38;15.13;;;13.83;;
69185;SDS011;56298;49.246;9.410;2023-02-28T02:12:07;15.90;;;14.47;;
69185;SDS011;56298;49.246;9.410;2023-02-28T02:14:57;17.37;;;15.87;;
69185;SDS011;56298;49.246;9.410;2023-02-28T02:17:35;14.88;;;13.68;;
69185;SDS011;56298;49.246;9.410;2023-02-28T02:39:14;16.63;;;15.07;;
69185;SDS011;56298;49.246;9.410;2023-02-28T02:47:28;16.75;;;15.35;;
69185;SDS011;56298;49.246;9.410;2023-02-28T02:49:56;16.20;;;14.70;;
69185;SDS011;56298;49.246;9.410;2023-02-28T02:52:25;16.95;;;15.45;;
69185;SDS011;56298;49.246;9.410;2023-02-28T02:54:58;17.70;;;16.00;;
69185;SDS011;56298;49.246;9.410;2023-02-28T02:57:27;17.05;;;15.65;;
69185;SDS011;56298;49.246;9.410;2023-02-28T03:00:02;16.67;;;15.20;;
69185;SDS011;56298;49.246;9.410;2023-02-28T03:02:30;16.10;;;14.65;;
69185;SDS011;56298;49.246;9.410;2023-02-28T03:04:59;17.10;;;15.60;;
69185;SDS011;56298;49.246;9.410;2023-02-28T03:07:28;16.70;;;15.30;;
69185;SDS011;56298;49.246;9.410;2023-02-28T03:09:54;17.47;;;15.97;;
69185;SDS011;56298;49.246;9.410;2023-02-28T03:12:20;17.52;;;16.00;;
69185;SDS011;56298;49.246;9.410;2023-02-28T03:15:24;17.80;;;16.25;;
69185;SDS011;56298;49.246;9.410;2023-02-28T03:20:34;18.08;;;16.40;;
69185;SDS011;56298;49.246;9.410;2023-02-28T03:23:10;17.30;;;15.70;;
69185;SDS011;56298;49.246;9.410;2023-02-28T03:25:45;17.15;;;15.75;;
69185;SDS011;56298;49.246;9.410;2023-02-28T03:28:31;17.15;;;15.60;;
69185;SDS011;56298;49.246;9.410;2023-02-28T03:31:14;15.83;;;14.43;;
69185;SDS011;56298;49.246;9.410;2023-02-28T03:33:47;16.75;;;15.27;;
69185;SDS011;56298;49.246;9.410;2023-02-28T03:36:20;17.00;;;15.60;;
69185;SDS011;56298;49.246;9.410;2023-02-28T03:39:01;17.17;;;15.68;;
69185;SDS011;56298;49.246;9.410;2023-02-28T03:41:37;16.42;;;14.98;;
69185;SDS011;56298;49.246;9.410;2023-02-28T03:44:13;17.67;;;16.07;;
69185;SDS011;56298;49.246;9.410;2023-02-28T03:46:45;16.90;;;15.50;;
69185;SDS011;56298;49.246;9.410;2023-02-28T03:49:22;17.65;;;16.13;;
69185;SDS011;56298;49.246;9.410;2023-02-28T03:51:52;17.48;;;15.98;;
69185;SDS011;56298;49.246;9.410;2023-02-28T03:54:20;16.60;;;15.10;;
69185;SDS011;56298;49.246;9.410;2023-02-28T03:56:59;18.33;;;16.83;;
69185;SDS011;56298;49.246;9.410;2023-02-28T03:59:34;17.38;;;15.98;;
69185;SDS011;56298;49.246;9.410;2023-02-28T04:02:06;16.80;;;15.20;;
69185;SDS011;56298;49.246;9.410;2023-02-28T04:04:32;16.67;;;15.18;;
69185;SDS011;56298;49.246;9.410;2023-02-28T04:07:05;16.50;;;15.10;;
69185;SDS011;56298;49.246;9.410;2023-02-28T04:09:32;16.80;;;15.20;;
69185;SDS011;56298;49.246;9.410;2023-02-28T04:11:58;16.20;;;14.80;;
69185;SDS011;56298;49.246;9.410;2023-02-28T04:14:23;17.23;;;15.73;;
69185;SDS011;56298;49.246;9.410;2023-02-28T04:16:48;15.80;;;14.40;;
69185;SDS011;56298;49.246;9.410;2023-02-28T04:19:15;16.33;;;14.83;;
69185;SDS011;56298;49.246;9.410;2023-02-28T04:21:42;16.93;;;15.53;;
69185;SDS011;56298;49.246;9.410;2023-02-28T04:24:13;17.70;;;16.20;;
69185;SDS011;56298;49.246;9.410;2023-02-28T04:26:41;17.45;;;15.88;;
69185;SDS011;56298;49.246;9.410;2023-02-28T04:29:12;17.70;;;16.10;;
69185;SDS011;56298;49.246;9.410;2023-02-28T04:31:39;16.63;;;15.10;;
69185;SDS011;56298;49.246;9.410;2023-02-28T04:34:04;17.37;;;15.77;;
69185;SDS011;56298;49.246;9.410;2023-02-28T04:36:30;17.13;;;15.63;;
69185;SDS011;56298;49.246;9.410;2023-02-28T04:38:56;17.25;;;15.57;;
69185;SDS011;56298;49.246;9.410;2023-02-28T04:41:21;17.10;;;15.60;;
69185;SDS011;56298;49.246;9.410;2023-02-28T04:43:47;17.48;;;15.88;;
69185;SDS011;56298;49.246;9.410;2023-02-28T04:46:13;17.90;;;16.37;;
69185;SDS011;56298;49.246;9.410;2023-02-28T04:48:39;16.37;;;14.83;;
69185;SDS011;56298;49.246;9.410;2023-02-28T04:51:06;15.80;;;14.30;;
69185;SDS011;56298;49.246;9.410;2023-02-28T04:53:34;15.67;;;14.37;;
69185;SDS011;56298;49.246;9.410;2023-02-28T04:56:00;16.87;;;15.47;;
69185;SDS011;56298;49.246;9.410;2023-02-28T04:58:26;17.90;;;16.30;;
69185;SDS011;56298;49.246;9.410;2023-02-28T05:00:52;17.57;;;15.97;;
69185;SDS011;56298;49.246;9.410;2023-02-28T05:03:18;18.88;;;17.20;;
69185;SDS011;56298;49.246;9.410;2023-02-28T05:05:43;16.87;;;15.23;;
69185;SDS011;56298;49.246;9.410;2023-02-28T05:08:09;17.67;;;16.13;;
69185;SDS011;56298;49.246;9.410;2023-02-28T05:10:34;17.83;;;16.13;;
69185;SDS011;56298;49.246;9.410;2023-02-28T05:13:00;19.47;;;17.70;;
69185;SDS011;56298;49.246;9.410;2023-02-28T05:15:25;17.80;;;16.10;;
69185;SDS011;56298;49.246;9.410;2023-02-28T05:17:50;18.60;;;17.00;;
69185;SDS011;56298;49.246;9.410;2023-02-28T05:20:15;18.33;;;16.63;;
69185;SDS011;56298;49.246;9.410;2023-02-28T05:22:42;18.02;;;16.25;;
69185;SDS011;56298;49.246;9.410;2023-02-28T05:25:08;18.00;;;16.38;;
69185;SDS011;56298;49.246;9.410;2023-02-28T05:27:37;19.65;;;17.85;;
69185;SDS011;56298;49.246;9.410;2023-02-28T05:30:02;18.73;;;17.13;;
69185;SDS011;56298;49.246;9.410;2023-02-28T05:32:29;17.58;;;15.88;;
69185;SDS011;56298;49.246;9.410;2023-02-28T05:34:54;18.98;;;17.38;;
69185;SDS011;56298;49.246;9.410;2023-02-28T05:37:19;18.83;;;17.03;;
69185;SDS011;56298;49.246;9.410;2023-02-28T05:39:45;18.05;;;16.50;;
69185;SDS011;56298;49.246;9.410;2023-02-28T05:42:11;19.13;;;17.52;;
69185;SDS011;56298;49.246;9.410;2023-02-28T05:44:36;18.83;;;17.03;;
69185;SDS011;56298;49.246;9.410;2023-02-28T05:47:01;16.67;;;15.07;;
69185;SDS011;56298;49.246;9.410;2023-02-28T05:49:26;16.00;;;14.50;;
69185;SDS011;56298;49.246;9.410;2023-02-28T05:51:52;17.03;;;15.43;;
69185;SDS011;56298;49.246;9.410;2023-02-28T05:54:17;16.90;;;15.13;;
69185;SDS011;56298;49.246;9.410;2023-02-28T05:56:42;18.50;;;16.83;;
69185;SDS011;56298;49.246;9.410;2023-02-28T05:59:10;17.02;;;15.30;;
69185;SDS011;56298;49.246;9.410;2023-02-28T06:01:37;19.90;;;18.20;;
69185;SDS011;56298;49.246;9.410;2023-02-28T06:04:08;19.30;;;17.60;;
69185;SDS011;56298;49.246;9.410;2023-02-28T06:06:35;17.97;;;16.33;;
69185;SDS011;56298;49.246;9.410;2023-02-28T06:09:04;17.95;;;16.17;;
69185;SDS011;56298;49.246;9.410;2023-02-28T06:11:30;18.83;;;17.02;;
69185;SDS011;56298;49.246;9.410;2023-02-28T06:13:56;18.43;;;16.70;;
69185;SDS011;56298;49.246;9.410;2023-02-28T06:16:26;18.15;;;16.55;;
69185;SDS011;56298;49.246;9.410;2023-02-28T06:18:53;18.55;;;16.77;;
69185;SDS011;56298;49.246;9.410;2023-02-28T06:21:21;18.75;;;16.92;;
69185;SDS011;56298;49.246;9.410;2023-02-28T06:23:46;17.80;;;16.20;;
69185;SDS011;56298;49.246;9.410;2023-02-28T06:26:12;19.00;;;17.23;;
69185;SDS011;56298;49.246;9.410;2023-02-28T06:28:37;19.27;;;17.37;;
69185;SDS011;56298;49.246;9.410;2023-02-28T06:31:06;19.00;;;17.07;;
69185;SDS011;56298;49.246;9.410;2023-02-28T06:33:35;19.52;;;17.52;;
69185;SDS011;56298;49.246;9.410;2023-02-28T06:36:02;18.80;;;17.00;;
69185;SDS011;56298;49.246;9.410;2023-02-28T06:38:28;19.27;;;17.48;;
69185;SDS011;56298;49.246;9.410;2023-02-28T06:40:53;18.27;;;16.47;;
69185;SDS011;56298;49.246;9.410;2023-02-28T06:43:19;19.15;;;17.45;;
69185;SDS011;56298;49.246;9.410;2023-02-28T06:45:44;19.00;;;17.17;;
69185;SDS011;56298;49.246;9.410;2023-02-28T06:48:10;18.57;;;16.87;;
69185;SDS011;56298;49.246;9.410;2023-02-28T06:50:35;19.88;;;17.98;;
69185;SDS011;56298;49.246;9.410;2023-02-28T06:53:01;18.70;;;17.10;;
69185;SDS011;56298;49.246;9.410;2023-02-28T06:55:26;18.77;;;17.00;;
69185;SDS011;56298;49.246;9.410;2023-02-28T06:57:51;19.07;;;17.17;;
69185;SDS011;56298;49.246;9.410;2023-02-28T07:00:16;19.40;;;17.70;;
69185;SDS011;56298;49.246;9.410;2023-02-28T07:02:42;18.17;;;16.48;;
69185;SDS011;56298;49.246;9.410;2023-02-28T07:05:07;18.23;;;16.53;;
69185;SDS011;56298;49.246;9.410;2023-02-28T07:07:33;17.33;;;15.73;;
69185;SDS011;56298;49.246;9.410;2023-02-28T07:09:59;19.55;;;17.75;;
69185;SDS011;56298;49.246;9.410;2023-02-28T07:12:24;18.97;;;17.17;;
69185;SDS011;56298;49.246;9.410;2023-02-28T07:14:49;18.63;;;16.83;;
69185;SDS011;56298;49.246;9.410;2023-02-28T07:17:15;17.48;;;15.82;;
69185;SDS011;56298;49.246;9.410;2023-02-28T07:19:40;19.03;;;17.23;;
69185;SDS011;56298;49.246;9.410;2023-02-28T07:22:06;19.00;;;17.23;;
69185;SDS011;56298;49.246;9.410;2023-02-28T07:24:32;18.85;;;17.13;;
69185;SDS011;56298;49.246;9.410;2023-02-28T07:26:57;16.87;;;15.27;;
69185;SDS011;56298;49.246;9.410;2023-02-28T07:29:22;18.27;;;16.67;;
69185;SDS011;56298;49.246;9.410;2023-02-28T07:31:47;17.80;;;16.20;;
69185;SDS011;56298;49.246;9.410;2023-02-28T07:34:15;17.02;;;15.32;;
69185;SDS011;56298;49.246;9.410;2023-02-28T07:36:40;18.38;;;16.52;;
69185;SDS011;56298;49.246;9.410;2023-02-28T07:39:05;17.07;;;15.37;;
69185;SDS011;56298;49.246;9.410;2023-02-28T07:41:31;17.07;;;15.30;;
69185;SDS011;56298;49.246;9.410;2023-02-28T07:43:58;16.77;;;15.07;;
69185;SDS011;56298;49.246;9.410;2023-02-28T07:46:25;17.43;;;15.63;;
69185;SDS011;56298;49.246;9.410;2023-02-28T07:48:50;17.35;;;15.75;;
69185;SDS011;56298;49.246;9.410;2023-02-28T07:51:17;17.23;;;15.52;;
69185;SDS011;56298;49.246;9.410;2023-02-28T07:53:43;16.00;;;14.30;;
69185;SDS011;56298;49.246;9.410;2023-02-28T07:56:08;16.40;;;14.80;;
69185;SDS011;56298;49.246;9.410;2023-02-28T07:58:33;16.83;;;15.17;;
69185;SDS011;56298;49.246;9.410;2023-02-28T08:01:08;16.37;;;14.77;;
69185;SDS011;56298;49.246;9.410;2023-02-28T08:03:35;14.50;;;12.90;;
69185;SDS011;56298;49.246;9.410;2023-02-28T08:06:02;17.10;;;15.30;;
69185;SDS011;56298;49.246;9.410;2023-02-28T08:08:29;15.00;;;13.40;;
69185;SDS011;56298;49.246;9.410;2023-02-28T08:10:57;15.15;;;13.55;;
69185;SDS011;56298;49.246;9.410;2023-02-28T08:13:27;13.13;;;11.73;;
69185;SDS011;56298;49.246;9.410;2023-02-28T08:15:53;13.13;;;10.98;;
69185;SDS011;56298;49.246;9.410;2023-02-28T08:18:19;15.27;;;11.27;;
69185;SDS011;56298;49.246;9.410;2023-02-28T08:20:45;12.43;;;8.00;;
69185;SDS011;56298;49.246;9.410;2023-02-28T08:23:11;12.70;;;8.27;;
69185;SDS011;56298;49.246;9.410;2023-02-28T08:25:36;12.30;;;5.93;;
69185;SDS011;56298;49.246;9.410;2023-02-28T08:28:02;12.00;;;6.30;;
69185;SDS011;56298;49.246;9.410;2023-02-28T08:30:27;12.43;;;6.32;;
69185;SDS011;56298;49.246;9.410;2023-02-28T08:32:52;13.15;;;6.35;;
69185;SDS011;56298;49.246;9.410;2023-02-28T08:35:18;13.18;;;6.38;;
69185;SDS011;56298;49.246;9.410;2023-02-28T08:37:43;12.40;;;7.00;;
69185;SDS011;56298;49.246;9.410;2023-02-28T08:40:09;11.47;;;6.67;;
69185;SDS011;56298;49.246;9.410;2023-02-28T08:42:35;13.43;;;6.35;;
69185;SDS011;56298;49.246;9.410;2023-02-28T08:45:00;11.37;;;6.00;;
69185;SDS011;56298;49.246;9.410;2023-02-28T08:47:26;11.13;;;6.43;;
69185;SDS011;56298;49.246;9.410;2023-02-28T08:49:51;12.43;;;6.63;;
69185;SDS011;56298;49.246;9.410;2023-02-28T08:52:16;12.90;;;7.40;;
69185;SDS011;56298;49.246;9.410;2023-02-28T08:54:42;12.73;;;6.30;;
69185;SDS011;56298;49.246;9.410;2023-02-28T08:57:07;12.57;;;6.47;;
69185;SDS011;56298;49.246;9.410;2023-02-28T08:59:36;11.80;;;6.30;;
69185;SDS011;56298;49.246;9.410;2023-02-28T09:02:01;12.10;;;6.43;;
69185;SDS011;56298;49.246;9.410;2023-02-28T09:04:26;12.07;;;6.40;;
69185;SDS011;56298;49.246;9.410;2023-02-28T09:06:52;13.07;;;6.50;;
69185;SDS011;56298;49.246;9.410;2023-02-28T09:09:17;12.93;;;6.68;;
69185;SDS011;56298;49.246;9.410;2023-02-28T09:11:42;11.57;;;6.20;;
69185;SDS011;56298;49.246;9.410;2023-02-28T09:14:08;13.27;;;6.30;;
69185;SDS011;56298;49.246;9.410;2023-02-28T09:16:33;12.57;;;6.30;;
69185;SDS011;56298;49.246;9.410;2023-02-28T09:18:59;12.20;;;6.28;;
69185;SDS011;56298;49.246;9.410;2023-02-28T09:21:25;12.00;;;6.50;;
69185;SDS011;56298;49.246;9.410;2023-02-28T09:23:51;11.88;;;6.47;;
69185;SDS011;56298;49.246;9.410;2023-02-28T09:26:18;13.93;;;6.33;;
69185;SDS011;56298;49.246;9.410;2023-02-28T09:28:47;12.70;;;6.53;;
69185;SDS011;56298;49.246;9.410;2023-02-28T09:31:14;13.03;;;6.43;;
69185;SDS011;56298;49.246;9.410;2023-02-28T09:33:41;11.70;;;6.57;;
69185;SDS011;56298;49.246;9.410;2023-02-28T09:36:06;11.83;;;6.40;;
69185;SDS011;56298;49.246;9.410;2023-02-28T09:38:32;11.50;;;6.50;;
69185;SDS011;56298;49.246;9.410;2023-02-28T09:41:00;13.33;;;6.50;;
69185;SDS011;56298;49.246;9.410;2023-02-28T09:43:33;12.45;;;6.43;;
69185;SDS011;56298;49.246;9.410;2023-02-28T09:49:12;12.25;;;6.40;;
69185;SDS011;56298;49.246;9.410;2023-02-28T09:54:24;12.07;;;6.57;;
69185;SDS011;56298;49.246;9.410;2023-02-28T09:56:53;12.43;;;6.32;;
69185;SDS011;56298;49.246;9.410;2023-02-28T10:02:19;12.27;;;7.00;;
69185;SDS011;56298;49.246;9.410;2023-02-28T10:04:54;13.95;;;7.20;;
69185;SDS011;56298;49.246;9.410;2023-02-28T10:10:17;14.97;;;7.10;;
69185;SDS011;56298;49.246;9.410;2023-02-28T10:12:46;12.82;;;7.28;;
69185;SDS011;56298;49.246;9.410;2023-02-28T10:15:15;14.07;;;7.10;;
69185;SDS011;56298;49.246;9.410;2023-02-28T10:17:43;12.77;;;7.00;;
69185;SDS011;56298;49.246;9.410;2023-02-28T10:20:17;13.82;;;6.93;;
69185;SDS011;56298;49.246;9.410;2023-02-28T10:23:00;12.53;;;7.07;;
69185;SDS011;56298;49.246;9.410;2023-02-28T10:25:32;15.63;;;7.40;;
69185;SDS011;56298;49.246;9.410;2023-02-28T10:28:01;13.50;;;7.15;;
69185;SDS011;56298;49.246;9.410;2023-02-28T10:30:32;13.45;;;7.70;;
69185;SDS011;56298;49.246;9.410;2023-02-28T10:32:58;12.53;;;6.77;;
69185;SDS011;56298;49.246;9.410;2023-02-28T10:35:24;13.43;;;6.83;;
69185;SDS011;56298;49.246;9.410;2023-02-28T10:37:58;13.10;;;7.40;;
69185;SDS011;56298;49.246;9.410;2023-02-28T10:40:33;13.52;;;7.35;;
69185;SDS011;56298;49.246;9.410;2023-02-28T10:45:37;12.47;;;7.00;;
69185;SDS011;56298;49.246;9.410;2023-02-28T10:48:04;12.57;;;7.47;;
69185;SDS011;56298;49.246;9.410;2023-02-28T10:50:51;14.70;;;8.03;;
69185;SDS011;56298;49.246;9.410;2023-02-28T10:55:58;14.68;;;8.20;;
69185;SDS011;56298;49.246;9.410;2023-02-28T10:58:27;14.90;;;8.40;;
69185;SDS011;56298;49.246;9.410;2023-02-28T11:00:58;15.50;;;8.10;;
69185;SDS011;56298;49.246;9.410;2023-02-28T11:03:34;15.00;;;8.30;;
69185;SDS011;56298;49.246;9.410;2023-02-28T11:06:05;16.02;;;8.38;;
69185;SDS011;56298;49.246;9.410;2023-02-28T11:08:33;14.73;;;8.38;;
69185;SDS011;56298;49.246;9.410;2023-02-28T11:11:01;14.32;;;8.40;;
69185;SDS011;56298;49.246;9.410;2023-02-28T11:13:34;16.02;;;8.55;;
69185;SDS011;56298;49.246;9.410;2023-02-28T11:16:04;16.40;;;8.63;;
69185;SDS011;56298;49.246;9.410;2023-02-28T11:18:37;15.20;;;8.43;;
69185;SDS011;56298;49.246;9.410;2023-02-28T11:21:07;15.80;;;8.48;;
69185;SDS011;56298;49.246;9.410;2023-02-28T11:23:34;14.13;;;9.13;;
69185;SDS011;56298;49.246;9.410;2023-02-28T11:26:02;14.80;;;8.70;;
69185;SDS011;56298;49.246;9.410;2023-02-28T11:33:48;14.15;;;8.55;;
69185;SDS011;56298;49.246;9.410;2023-02-28T11:36:23;14.45;;;8.80;;
69185;SDS011;56298;49.246;9.410;2023-02-28T11:38:50;15.05;;;9.07;;
69185;SDS011;56298;49.246;9.410;2023-02-28T11:44:05;16.77;;;9.25;;
69185;SDS011;56298;49.246;9.410;2023-02-28T11:46:40;14.85;;;9.15;;
69185;SDS011;56298;49.246;9.410;2023-02-28T11:52:01;14.77;;;8.93;;
69185;SDS011;56298;49.246;9.410;2023-02-28T12:11:43;16.23;;;8.98;;
69185;SDS011;56298;49.246;9.410;2023-02-28T12:17:13;17.13;;;9.40;;
69185;SDS011;56298;49.246;9.410;2023-02-28T12:22:32;14.43;;;9.10;;
69185;SDS011;56298;49.246;9.410;2023-02-28T12:27:49;14.15;;;8.80;;
69185;SDS011;56298;49.246;9.410;2023-02-28T12:33:06;15.68;;;9.63;;
69185;SDS011;56298;49.246;9.410;2023-02-28T12:35:39;15.77;;;9.07;;
69185;SDS011;56298;49.246;9.410;2023-02-28T12:38:12;16.30;;;9.65;;
69185;SDS011;56298;49.246;9.410;2023-02-28T12:40:45;16.88;;;9.75;;
69185;SDS011;56298;49.246;9.410;2023-02-28T12:43:16;14.38;;;9.25;;
69185;SDS011;56298;49.246;9.410;2023-02-28T12:45:45;15.10;;;9.23;;
69185;SDS011;56298;49.246;9.410;2023-02-28T12:48:46;16.25;;;9.00;;
69185;SDS011;56298;49.246;9.410;2023-02-28T12:51:15;15.98;;;9.60;;
69185;SDS011;56298;49.246;9.410;2023-02-28T12:56:42;16.70;;;10.10;;
69185;SDS011;56298;49.246;9.410;2023-02-28T13:04:55;15.60;;;9.30;;
69185;SDS011;56298;49.246;9.410;2023-02-28T13:09:59;15.55;;;9.13;;
69185;SDS011;56298;49.246;9.410;2023-02-28T13:12:27;16.60;;;9.50;;
69185;SDS011;56298;49.246;9.410;2023-02-28T13:15:01;17.67;;;9.32;;
69185;SDS011;56298;49.246;9.410;2023-02-28T13:17:31;16.35;;;9.45;;
69185;SDS011;56298;49.246;9.410;2023-02-28T13:19:57;15.20;;;9.18;;
69185;SDS011;56298;49.246;9.410;2023-02-28T13:25:49;15.52;;;9.27;;
69185;SDS011;56298;49.246;9.410;2023-02-28T13:28:09;16.77;;;9.77;;
69185;SDS011;56298;49.246;9.410;2023-02-28T13:33:25;16.83;;;9.50;;
69185;SDS011;56298;49.246;9.410;2023-02-28T13:38:34;16.47;;;9.40;;
69185;SDS011;56298;49.246;9.410;2023-02-28T13:49:23;15.40;;;9.10;;
69185;SDS011;56298;49.246;9.410;2023-02-28T13:51:51;15.73;;;9.23;;
69185;SDS011;56298;49.246;9.410;2023-02-28T13:57:07;16.75;;;9.57;;
69185;SDS011;56298;49.246;9.410;2023-02-28T14:05:34;16.95;;;9.50;;
69185;SDS011;56298;49.246;9.410;2023-02-28T14:08:05;16.20;;;9.15;;
69185;SDS011;56298;49.246;9.410;2023-02-28T14:18:29;15.20;;;8.67;;
69185;SDS011;56298;49.246;9.410;2023-02-28T14:29:43;15.00;;;9.18;;
69185;SDS011;56298;49.246;9.410;2023-02-28T14:38:21;17.03;;;8.87;;
69185;SDS011;56298;49.246;9.410;2023-02-28T14:40:51;15.02;;;9.00;;
69185;SDS011;56298;49.246;9.410;2023-02-28T14:43:22;16.13;;;9.43;;
69185;SDS011;56298;49.246;9.410;2023-02-28T14:45:50;14.55;;;8.93;;
69185;SDS011;56298;49.246;9.410;2023-02-28T14:48:17;16.48;;;8.90;;
69185;SDS011;56298;49.246;9.410;2023-02-28T14:50:48;15.85;;;9.20;;
69185;SDS011;56298;49.246;9.410;2023-02-28T14:53:25;14.95;;;8.98;;
69185;SDS011;56298;49.246;9.410;2023-02-28T14:55:53;15.73;;;9.15;;
69185;SDS011;56298;49.246;9.410;2023-02-28T14:58:24;14.87;;;9.30;;
69185;SDS011;56298;49.246;9.410;2023-02-28T15:00:55;15.35;;;8.95;;
69185;SDS011;56298;49.246;9.410;2023-02-28T15:03:23;14.23;;;8.43;;
69185;SDS011;56298;49.246;9.410;2023-02-28T15:05:58;16.50;;;9.00;;
69185;SDS011;56298;49.246;9.410;2023-02-28T15:08:26;15.30;;;8.57;;
69185;SDS011;56298;49.246;9.410;2023-02-28T15:13:22;15.47;;;9.00;;
69185;SDS011;56298;49.246;9.410;2023-02-28T15:16:01;16.50;;;8.40;;
69185;SDS011;56298;49.246;9.410;2023-02-28T15:21:07;15.30;;;8.50;;
69185;SDS011;56298;49.246;9.410;2023-02-28T15:23:37;16.63;;;9.18;;
69185;SDS011;56298;49.246;9.410;2023-02-28T15:26:04;22.25;;;8.60;;
69185;SDS011;56298;49.246;9.410;2023-02-28T15:28:30;15.23;;;9.23;;
69185;SDS011;56298;49.246;9.410;2023-02-28T15:31:00;17.63;;;8.73;;
69185;SDS011;56298;49.246;9.410;2023-02-28T15:33:28;15.57;;;8.40;;
69185;SDS011;56298;49.246;9.410;2023-02-28T15:36:12;15.68;;;8.48;;
69185;SDS011;56298;49.246;9.410;2023-02-28T15:38:39;16.43;;;8.53;;
69185;SDS011;56298;49.246;9.410;2023-02-28T15:41:05;16.00;;;8.63;;
69185;SDS011;56298;49.246;9.410;2023-02-28T15:43:37;15.00;;;8.30;;
69185;SDS011;56298;49.246;9.410;2023-02-28T15:46:05;14.02;;;8.48;;
69185;SDS011;56298;49.246;9.410;2023-02-28T15:48:34;15.50;;;8.00;;
69185;SDS011;56298;49.246;9.410;2023-02-28T15:53:31;14.87;;;7.97;;
69185;SDS011;56298;49.246;9.410;2023-02-28T15:56:02;13.83;;;8.20;;
69185;SDS011;56298;49.246;9.410;2023-02-28T15:58:30;13.77;;;8.25;;
69185;SDS011;56298;49.246;9.410;2023-02-28T16:01:06;14.45;;;8.25;;
69185;SDS011;56298;49.246;9.410;2023-02-28T16:03:46;15.73;;;8.43;;
69185;SDS011;56298;49.246;9.410;2023-02-28T16:08:41;16.52;;;8.68;;
69185;SDS011;56298;49.246;9.410;2023-02-28T16:11:08;14.33;;;7.73;;
69185;SDS011;56298;49.246;9.410;2023-02-28T16:13:34;13.82;;;8.10;;
69185;SDS011;56298;49.246;9.410;2023-02-28T16:16:00;14.00;;;7.97;;
69185;SDS011;56298;49.246;9.410;2023-02-28T16:18:26;15.60;;;8.73;;
69185;SDS011;56298;49.246;9.410;2023-02-28T16:20:51;15.67;;;8.40;;
69185;SDS011;56298;49.246;9.410;2023-02-28T16:23:17;15.50;;;8.33;;
69185;SDS011;56298;49.246;9.410;2023-02-28T16:25:42;13.93;;;7.97;;
69185;SDS011;56298;49.246;9.410;2023-02-28T16:28:12;14.67;;;8.47;;
69185;SDS011;56298;49.246;9.410;2023-02-28T16:30:44;15.15;;;8.48;;
69185;SDS011;56298;49.246;9.410;2023-02-28T16:33:09;14.07;;;8.30;;
69185;SDS011;56298;49.246;9.410;2023-02-28T16:35:35;14.63;;;8.13;;
69185;SDS011;56298;49.246;9.410;2023-02-28T16:38:00;13.83;;;8.23;;
69185;SDS011;56298;49.246;9.410;2023-02-28T16:40:26;14.63;;;8.50;;
69185;SDS011;56298;49.246;9.410;2023-02-28T16:42:54;15.00;;;8.00;;
69185;SDS011;56298;49.246;9.410;2023-02-28T16:45:24;14.48;;;7.97;;
69185;SDS011;56298;49.246;9.410;2023-02-28T16:47:51;15.23;;;8.18;;
69185;SDS011;56298;49.246;9.410;2023-02-28T16:50:17;15.60;;;8.17;;
69185;SDS011;56298;49.246;9.410;2023-02-28T16:52:47;15.23;;;8.70;;
69185;SDS011;56298;49.246;9.410;2023-02-28T16:55:13;15.57;;;8.27;;
69185;SDS011;56298;49.246;9.410;2023-02-28T16:57:38;15.27;;;8.40;;
69185;SDS011;56298;49.246;9.410;2023-02-28T17:00:05;14.50;;;8.23;;
69185;SDS011;56298;49.246;9.410;2023-02-28T17:02:33;13.23;;;8.00;;
69185;SDS011;56298;49.246;9.410;2023-02-28T17:04:58;15.37;;;8.13;;
69185;SDS011;56298;49.246;9.410;2023-02-28T17:07:24;16.27;;;8.97;;
69185;SDS011;56298;49.246;9.410;2023-02-28T17:09:49;14.67;;;7.70;;